sensor_id;sensor_type;location;lat;lon;timestamp;P1;durP1;ratioP1;P2;durP2;ratioP2
13611;SDS011;6877;51.436;6.774;2023-11-19T00:00:23;11.27;;;6.95;;
13611;SDS011;6877;51.436;6.774;2023-11-19T00:02:50;14.43;;;8.05;;
13611;SDS011;6877;51.436;6.774;2023-11-19T00:05:16;12.40;;;6.90;;
13611;SDS011;6877;51.436;6.774;2023-11-19T00:07:43;9.65;;;6.50;;
13611;SDS011;6877;51.436;6.774;2023-11-19T00:10:10;11.68;;;7.25;;
13611;SDS011;6877;51.436;6.774;2023-11-19T00:12:41;11.45;;;5.80;;
13611;SDS011;6877;51.436;6.774;2023-11-19T00:15:10;10.25;;;6.40;;
13611;SDS011;6877;51.436;6.774;2023-11-19T00:17:37;11.40;;;6.18;;
13611;SDS011;6877;51.436;6.774;2023-11-19T00:20:11;10.43;;;6.55;;
13611;SDS011;6877;51.436;6.774;2023-11-19T00:22:41;12.35;;;6.20;;
13611;SDS011;6877;51.436;6.774;2023-11-19T00:25:09;11.70;;;6.45;;
13611;SDS011;6877;51.436;6.774;2023-11-19T00:27:36;10.45;;;6.32;;
13611;SDS011;6877;51.436;6.774;2023-11-19T00:30:04;7.32;;;5.38;;
13611;SDS011;6877;51.436;6.774;2023-11-19T00:32:32;10.00;;;6.65;;
13611;SDS011;6877;51.436;6.774;2023-11-19T00:35:04;8.95;;;5.35;;
13611;SDS011;6877;51.436;6.774;2023-11-19T00:37:39;12.23;;;5.90;;
13611;SDS011;6877;51.436;6.774;2023-11-19T00:40:06;12.38;;;5.75;;
13611;SDS011;6877;51.436;6.774;2023-11-19T00:42:33;10.98;;;5.90;;
13611;SDS011;6877;51.436;6.774;2023-11-19T00:44:59;10.15;;;6.03;;
13611;SDS011;6877;51.436;6.774;2023-11-19T00:47:27;9.60;;;5.72;;
13611;SDS011;6877;51.436;6.774;2023-11-19T00:49:59;12.60;;;6.38;;
13611;SDS011;6877;51.436;6.774;2023-11-19T00:52:30;11.23;;;5.82;;
13611;SDS011;6877;51.436;6.774;2023-11-19T00:55:02;9.40;;;5.03;;
13611;SDS011;6877;51.436;6.774;2023-11-19T00:57:28;10.10;;;5.35;;
13611;SDS011;6877;51.436;6.774;2023-11-19T00:59:54;11.23;;;5.82;;
13611;SDS011;6877;51.436;6.774;2023-11-19T01:02:21;8.63;;;5.90;;
13611;SDS011;6877;51.436;6.774;2023-11-19T01:04:52;10.43;;;6.20;;
13611;SDS011;6877;51.436;6.774;2023-11-19T01:07:19;7.85;;;5.18;;
13611;SDS011;6877;51.436;6.774;2023-11-19T01:09:45;6.50;;;4.55;;
13611;SDS011;6877;51.436;6.774;2023-11-19T01:12:12;14.07;;;4.72;;
13611;SDS011;6877;51.436;6.774;2023-11-19T01:14:38;7.30;;;4.40;;
13611;SDS011;6877;51.436;6.774;2023-11-19T01:17:05;6.40;;;4.57;;
13611;SDS011;6877;51.436;6.774;2023-11-19T01:19:36;10.70;;;5.03;;
13611;SDS011;6877;51.436;6.774;2023-11-19T01:22:08;7.25;;;4.65;;
13611;SDS011;6877;51.436;6.774;2023-11-19T01:24:34;7.78;;;4.53;;
13611;SDS011;6877;51.436;6.774;2023-11-19T01:27:01;6.88;;;4.72;;
13611;SDS011;6877;51.436;6.774;2023-11-19T01:29:27;7.20;;;4.55;;
13611;SDS011;6877;51.436;6.774;2023-11-19T01:31:53;6.93;;;4.55;;
13611;SDS011;6877;51.436;6.774;2023-11-19T01:34:20;4.63;;;3.75;;
13611;SDS011;6877;51.436;6.774;2023-11-19T01:36:46;6.25;;;5.00;;
13611;SDS011;6877;51.436;6.774;2023-11-19T01:39:19;7.72;;;4.00;;
13611;SDS011;6877;51.436;6.774;2023-11-19T01:41:47;9.45;;;4.68;;
13611;SDS011;6877;51.436;6.774;2023-11-19T01:44:13;4.97;;;3.38;;
13611;SDS011;6877;51.436;6.774;2023-11-19T01:46:40;5.95;;;4.50;;
13611;SDS011;6877;51.436;6.774;2023-11-19T01:49:08;6.63;;;4.60;;
13611;SDS011;6877;51.436;6.774;2023-11-19T01:51:35;8.38;;;4.38;;
13611;SDS011;6877;51.436;6.774;2023-11-19T01:54:01;7.38;;;4.65;;
13611;SDS011;6877;51.436;6.774;2023-11-19T01:56:32;6.38;;;4.90;;
13611;SDS011;6877;51.436;6.774;2023-11-19T01:58:59;13.45;;;5.43;;
13611;SDS011;6877;51.436;6.774;2023-11-19T02:01:28;6.80;;;4.38;;
13611;SDS011;6877;51.436;6.774;2023-11-19T02:03:55;11.68;;;5.68;;
13611;SDS011;6877;51.436;6.774;2023-11-19T02:06:29;8.73;;;5.05;;
13611;SDS011;6877;51.436;6.774;2023-11-19T02:08:59;7.13;;;4.40;;
13611;SDS011;6877;51.436;6.774;2023-11-19T02:11:26;7.07;;;4.28;;
13611;SDS011;6877;51.436;6.774;2023-11-19T02:14:00;10.20;;;4.47;;
13611;SDS011;6877;51.436;6.774;2023-11-19T02:16:34;8.50;;;4.82;;
13611;SDS011;6877;51.436;6.774;2023-11-19T02:19:00;8.75;;;4.95;;
13611;SDS011;6877;51.436;6.774;2023-11-19T02:21:27;7.05;;;4.30;;
13611;SDS011;6877;51.436;6.774;2023-11-19T02:23:58;7.63;;;3.72;;
13611;SDS011;6877;51.436;6.774;2023-11-19T02:26:36;12.25;;;4.32;;
13611;SDS011;6877;51.436;6.774;2023-11-19T02:29:15;14.98;;;5.13;;
13611;SDS011;6877;51.436;6.774;2023-11-19T02:31:41;10.23;;;4.60;;
13611;SDS011;6877;51.436;6.774;2023-11-19T02:34:12;16.80;;;5.30;;
13611;SDS011;6877;51.436;6.774;2023-11-19T02:36:39;8.15;;;4.03;;
13611;SDS011;6877;51.436;6.774;2023-11-19T02:39:07;13.00;;;5.78;;
13611;SDS011;6877;51.436;6.774;2023-11-19T02:41:37;9.35;;;4.78;;
13611;SDS011;6877;51.436;6.774;2023-11-19T02:44:06;7.95;;;4.55;;
13611;SDS011;6877;51.436;6.774;2023-11-19T02:46:33;12.15;;;5.47;;
13611;SDS011;6877;51.436;6.774;2023-11-19T02:49:04;10.68;;;4.30;;
13611;SDS011;6877;51.436;6.774;2023-11-19T02:51:32;8.32;;;4.00;;
13611;SDS011;6877;51.436;6.774;2023-11-19T02:54:01;9.43;;;4.63;;
13611;SDS011;6877;51.436;6.774;2023-11-19T02:56:29;10.35;;;4.50;;
13611;SDS011;6877;51.436;6.774;2023-11-19T02:59:00;21.20;;;6.53;;
13611;SDS011;6877;51.436;6.774;2023-11-19T03:01:34;11.77;;;5.43;;
13611;SDS011;6877;51.436;6.774;2023-11-19T03:04:02;8.85;;;4.97;;
13611;SDS011;6877;51.436;6.774;2023-11-19T03:06:29;13.10;;;4.60;;
13611;SDS011;6877;51.436;6.774;2023-11-19T03:08:56;12.43;;;4.88;;
13611;SDS011;6877;51.436;6.774;2023-11-19T03:11:22;13.70;;;5.20;;
13611;SDS011;6877;51.436;6.774;2023-11-19T03:13:49;9.02;;;4.07;;
13611;SDS011;6877;51.436;6.774;2023-11-19T03:16:15;8.95;;;4.70;;
13611;SDS011;6877;51.436;6.774;2023-11-19T03:18:43;13.02;;;5.03;;
13611;SDS011;6877;51.436;6.774;2023-11-19T03:21:09;11.65;;;5.55;;
13611;SDS011;6877;51.436;6.774;2023-11-19T03:23:36;11.95;;;6.50;;
13611;SDS011;6877;51.436;6.774;2023-11-19T03:26:03;14.43;;;4.68;;
13611;SDS011;6877;51.436;6.774;2023-11-19T03:28:31;16.83;;;6.45;;
13611;SDS011;6877;51.436;6.774;2023-11-19T03:30:58;18.02;;;5.55;;
13611;SDS011;6877;51.436;6.774;2023-11-19T03:33:25;13.45;;;6.07;;
13611;SDS011;6877;51.436;6.774;2023-11-19T03:35:54;14.23;;;4.50;;
13611;SDS011;6877;51.436;6.774;2023-11-19T03:38:23;14.68;;;5.50;;
13611;SDS011;6877;51.436;6.774;2023-11-19T03:40:50;10.98;;;5.07;;
13611;SDS011;6877;51.436;6.774;2023-11-19T03:43:17;14.55;;;3.97;;
13611;SDS011;6877;51.436;6.774;2023-11-19T03:45:45;20.83;;;4.78;;
13611;SDS011;6877;51.436;6.774;2023-11-19T03:48:12;14.38;;;4.40;;
13611;SDS011;6877;51.436;6.774;2023-11-19T03:50:42;16.15;;;5.30;;
13611;SDS011;6877;51.436;6.774;2023-11-19T03:53:08;26.98;;;5.95;;
13611;SDS011;6877;51.436;6.774;2023-11-19T03:55:35;14.48;;;5.32;;
13611;SDS011;6877;51.436;6.774;2023-11-19T03:58:01;17.80;;;4.75;;
13611;SDS011;6877;51.436;6.774;2023-11-19T04:00:28;17.48;;;4.57;;
13611;SDS011;6877;51.436;6.774;2023-11-19T04:02:54;17.95;;;4.38;;
13611;SDS011;6877;51.436;6.774;2023-11-19T04:05:21;17.25;;;4.53;;
13611;SDS011;6877;51.436;6.774;2023-11-19T04:07:47;25.95;;;5.60;;
13611;SDS011;6877;51.436;6.774;2023-11-19T04:10:14;15.77;;;5.15;;
13611;SDS011;6877;51.436;6.774;2023-11-19T04:12:47;12.98;;;4.40;;
13611;SDS011;6877;51.436;6.774;2023-11-19T04:15:14;14.57;;;4.50;;
13611;SDS011;6877;51.436;6.774;2023-11-19T04:17:40;20.40;;;5.15;;
13611;SDS011;6877;51.436;6.774;2023-11-19T04:20:07;19.23;;;5.90;;
13611;SDS011;6877;51.436;6.774;2023-11-19T04:22:46;14.77;;;4.47;;
13611;SDS011;6877;51.436;6.774;2023-11-19T04:25:17;23.95;;;7.55;;
13611;SDS011;6877;51.436;6.774;2023-11-19T04:27:46;16.45;;;5.03;;
13611;SDS011;6877;51.436;6.774;2023-11-19T04:30:14;24.77;;;5.90;;
13611;SDS011;6877;51.436;6.774;2023-11-19T04:32:40;24.88;;;5.20;;
13611;SDS011;6877;51.436;6.774;2023-11-19T04:35:12;19.00;;;5.93;;
13611;SDS011;6877;51.436;6.774;2023-11-19T04:37:38;16.67;;;5.35;;
13611;SDS011;6877;51.436;6.774;2023-11-19T04:40:05;17.88;;;5.65;;
13611;SDS011;6877;51.436;6.774;2023-11-19T04:42:32;26.67;;;6.75;;
13611;SDS011;6877;51.436;6.774;2023-11-19T04:44:59;14.35;;;4.18;;
13611;SDS011;6877;51.436;6.774;2023-11-19T04:47:25;16.23;;;4.90;;
13611;SDS011;6877;51.436;6.774;2023-11-19T04:49:54;25.95;;;6.38;;
13611;SDS011;6877;51.436;6.774;2023-11-19T04:52:21;20.98;;;5.78;;
13611;SDS011;6877;51.436;6.774;2023-11-19T04:54:47;27.23;;;6.25;;
13611;SDS011;6877;51.436;6.774;2023-11-19T04:57:14;30.95;;;9.43;;
13611;SDS011;6877;51.436;6.774;2023-11-19T04:59:40;25.92;;;7.45;;
13611;SDS011;6877;51.436;6.774;2023-11-19T05:02:10;32.80;;;8.40;;
13611;SDS011;6877;51.436;6.774;2023-11-19T05:04:36;33.35;;;10.30;;
13611;SDS011;6877;51.436;6.774;2023-11-19T05:07:06;27.17;;;7.93;;
13611;SDS011;6877;51.436;6.774;2023-11-19T05:09:33;27.88;;;6.70;;
13611;SDS011;6877;51.436;6.774;2023-11-19T05:11:59;31.75;;;6.55;;
13611;SDS011;6877;51.436;6.774;2023-11-19T05:14:26;24.52;;;5.65;;
13611;SDS011;6877;51.436;6.774;2023-11-19T05:16:53;23.80;;;6.63;;
13611;SDS011;6877;51.436;6.774;2023-11-19T05:19:20;27.85;;;6.85;;
13611;SDS011;6877;51.436;6.774;2023-11-19T05:21:46;27.27;;;5.43;;
13611;SDS011;6877;51.436;6.774;2023-11-19T05:24:13;24.90;;;6.50;;
13611;SDS011;6877;51.436;6.774;2023-11-19T05:26:40;25.60;;;7.05;;
13611;SDS011;6877;51.436;6.774;2023-11-19T05:29:06;25.58;;;6.25;;
13611;SDS011;6877;51.436;6.774;2023-11-19T05:31:33;27.67;;;6.55;;
13611;SDS011;6877;51.436;6.774;2023-11-19T05:33:59;43.17;;;5.55;;
13611;SDS011;6877;51.436;6.774;2023-11-19T05:36:31;19.95;;;4.82;;
13611;SDS011;6877;51.436;6.774;2023-11-19T05:38:57;26.90;;;5.80;;
13611;SDS011;6877;51.436;6.774;2023-11-19T05:41:24;26.33;;;5.18;;
13611;SDS011;6877;51.436;6.774;2023-11-19T05:43:50;21.73;;;6.68;;
13611;SDS011;6877;51.436;6.774;2023-11-19T05:46:17;26.88;;;7.90;;
13611;SDS011;6877;51.436;6.774;2023-11-19T05:48:49;33.08;;;9.45;;
13611;SDS011;6877;51.436;6.774;2023-11-19T05:51:15;36.10;;;9.23;;
13611;SDS011;6877;51.436;6.774;2023-11-19T05:53:47;38.03;;;8.20;;
13611;SDS011;6877;51.436;6.774;2023-11-19T05:56:16;30.48;;;10.15;;
13611;SDS011;6877;51.436;6.774;2023-11-19T05:58:52;27.83;;;5.97;;
13611;SDS011;6877;51.436;6.774;2023-11-19T06:01:18;27.77;;;7.47;;
13611;SDS011;6877;51.436;6.774;2023-11-19T06:03:45;34.97;;;8.55;;
13611;SDS011;6877;51.436;6.774;2023-11-19T06:06:15;37.42;;;9.80;;
13611;SDS011;6877;51.436;6.774;2023-11-19T06:08:42;42.08;;;9.65;;
13611;SDS011;6877;51.436;6.774;2023-11-19T06:11:09;30.52;;;6.97;;
13611;SDS011;6877;51.436;6.774;2023-11-19T06:13:40;19.13;;;6.68;;
13611;SDS011;6877;51.436;6.774;2023-11-19T06:16:07;29.55;;;8.20;;
13611;SDS011;6877;51.436;6.774;2023-11-19T06:18:33;32.03;;;9.57;;
13611;SDS011;6877;51.436;6.774;2023-11-19T06:21:00;30.60;;;8.45;;
13611;SDS011;6877;51.436;6.774;2023-11-19T06:23:26;24.27;;;8.38;;
13611;SDS011;6877;51.436;6.774;2023-11-19T06:25:53;31.02;;;7.63;;
13611;SDS011;6877;51.436;6.774;2023-11-19T06:28:19;17.77;;;5.70;;
13611;SDS011;6877;51.436;6.774;2023-11-19T06:30:51;19.05;;;5.32;;
13611;SDS011;6877;51.436;6.774;2023-11-19T06:33:17;16.38;;;5.53;;
13611;SDS011;6877;51.436;6.774;2023-11-19T06:35:44;28.30;;;6.68;;
13611;SDS011;6877;51.436;6.774;2023-11-19T06:38:10;30.83;;;6.07;;
13611;SDS011;6877;51.436;6.774;2023-11-19T06:40:42;28.67;;;6.15;;
13611;SDS011;6877;51.436;6.774;2023-11-19T06:43:08;25.45;;;7.40;;
13611;SDS011;6877;51.436;6.774;2023-11-19T06:45:40;26.27;;;5.40;;
13611;SDS011;6877;51.436;6.774;2023-11-19T06:48:11;27.00;;;6.20;;
13611;SDS011;6877;51.436;6.774;2023-11-19T06:50:38;32.85;;;6.22;;
13611;SDS011;6877;51.436;6.774;2023-11-19T06:53:09;32.65;;;5.47;;
13611;SDS011;6877;51.436;6.774;2023-11-19T06:55:36;25.52;;;5.07;;
13611;SDS011;6877;51.436;6.774;2023-11-19T06:58:08;40.17;;;5.50;;
13611;SDS011;6877;51.436;6.774;2023-11-19T07:00:34;29.60;;;4.78;;
13611;SDS011;6877;51.436;6.774;2023-11-19T07:03:07;21.63;;;6.13;;
13611;SDS011;6877;51.436;6.774;2023-11-19T07:05:37;23.90;;;5.15;;
13611;SDS011;6877;51.436;6.774;2023-11-19T07:08:05;37.38;;;6.70;;
13611;SDS011;6877;51.436;6.774;2023-11-19T07:10:33;25.27;;;4.55;;
13611;SDS011;6877;51.436;6.774;2023-11-19T07:13:04;26.63;;;5.10;;
13611;SDS011;6877;51.436;6.774;2023-11-19T07:15:32;18.38;;;5.60;;
13611;SDS011;6877;51.436;6.774;2023-11-19T07:18:03;25.27;;;4.45;;
13611;SDS011;6877;51.436;6.774;2023-11-19T07:20:30;16.88;;;5.97;;
13611;SDS011;6877;51.436;6.774;2023-11-19T07:22:57;13.20;;;4.13;;
13611;SDS011;6877;51.436;6.774;2023-11-19T07:25:23;20.77;;;4.43;;
13611;SDS011;6877;51.436;6.774;2023-11-19T07:27:51;18.70;;;5.40;;
13611;SDS011;6877;51.436;6.774;2023-11-19T07:30:18;29.63;;;4.93;;
13611;SDS011;6877;51.436;6.774;2023-11-19T07:32:49;19.02;;;4.57;;
13611;SDS011;6877;51.436;6.774;2023-11-19T07:35:16;42.92;;;5.53;;
13611;SDS011;6877;51.436;6.774;2023-11-19T07:37:43;20.85;;;6.75;;
13611;SDS011;6877;51.436;6.774;2023-11-19T07:40:09;21.67;;;4.68;;
13611;SDS011;6877;51.436;6.774;2023-11-19T07:42:43;19.15;;;3.95;;
13611;SDS011;6877;51.436;6.774;2023-11-19T07:45:10;20.58;;;4.95;;
13611;SDS011;6877;51.436;6.774;2023-11-19T07:47:37;15.65;;;4.43;;
13611;SDS011;6877;51.436;6.774;2023-11-19T07:50:09;19.58;;;5.50;;
13611;SDS011;6877;51.436;6.774;2023-11-19T07:52:37;17.52;;;4.22;;
13611;SDS011;6877;51.436;6.774;2023-11-19T07:55:03;19.63;;;5.43;;
13611;SDS011;6877;51.436;6.774;2023-11-19T07:57:36;23.27;;;6.53;;
13611;SDS011;6877;51.436;6.774;2023-11-19T08:00:07;20.20;;;5.32;;
13611;SDS011;6877;51.436;6.774;2023-11-19T08:02:38;21.55;;;5.30;;
13611;SDS011;6877;51.436;6.774;2023-11-19T08:05:05;33.38;;;6.88;;
13611;SDS011;6877;51.436;6.774;2023-11-19T08:07:31;28.73;;;5.32;;
13611;SDS011;6877;51.436;6.774;2023-11-19T08:09:58;29.00;;;7.95;;
13611;SDS011;6877;51.436;6.774;2023-11-19T08:12:26;29.73;;;8.13;;
13611;SDS011;6877;51.436;6.774;2023-11-19T08:14:52;41.45;;;10.68;;
13611;SDS011;6877;51.436;6.774;2023-11-19T08:17:19;47.15;;;15.15;;
13611;SDS011;6877;51.436;6.774;2023-11-19T08:19:45;28.83;;;10.38;;
13611;SDS011;6877;51.436;6.774;2023-11-19T08:22:11;30.70;;;8.82;;
13611;SDS011;6877;51.436;6.774;2023-11-19T08:24:38;31.20;;;7.72;;
13611;SDS011;6877;51.436;6.774;2023-11-19T08:27:04;30.52;;;7.97;;
13611;SDS011;6877;51.436;6.774;2023-11-19T08:29:31;21.80;;;5.25;;
13611;SDS011;6877;51.436;6.774;2023-11-19T08:32:02;30.30;;;7.32;;
13611;SDS011;6877;51.436;6.774;2023-11-19T08:34:34;17.65;;;5.13;;
13611;SDS011;6877;51.436;6.774;2023-11-19T08:37:06;21.25;;;5.45;;
13611;SDS011;6877;51.436;6.774;2023-11-19T08:39:37;16.80;;;4.60;;
13611;SDS011;6877;51.436;6.774;2023-11-19T08:42:05;21.05;;;4.70;;
13611;SDS011;6877;51.436;6.774;2023-11-19T08:44:31;23.85;;;7.00;;
13611;SDS011;6877;51.436;6.774;2023-11-19T08:46:58;23.90;;;4.72;;
13611;SDS011;6877;51.436;6.774;2023-11-19T08:49:24;19.58;;;5.00;;
13611;SDS011;6877;51.436;6.774;2023-11-19T08:51:52;23.88;;;6.10;;
13611;SDS011;6877;51.436;6.774;2023-11-19T08:54:18;20.08;;;5.05;;
13611;SDS011;6877;51.436;6.774;2023-11-19T08:56:46;20.17;;;6.50;;
13611;SDS011;6877;51.436;6.774;2023-11-19T08:59:12;24.17;;;4.18;;
13611;SDS011;6877;51.436;6.774;2023-11-19T09:01:39;23.75;;;5.70;;
13611;SDS011;6877;51.436;6.774;2023-11-19T09:04:06;21.20;;;5.25;;
13611;SDS011;6877;51.436;6.774;2023-11-19T09:06:32;25.33;;;4.82;;
13611;SDS011;6877;51.436;6.774;2023-11-19T09:09:04;27.75;;;5.20;;
13611;SDS011;6877;51.436;6.774;2023-11-19T09:11:36;20.40;;;4.93;;
13611;SDS011;6877;51.436;6.774;2023-11-19T09:14:08;20.20;;;4.60;;
13611;SDS011;6877;51.436;6.774;2023-11-19T09:16:34;28.40;;;7.32;;
13611;SDS011;6877;51.436;6.774;2023-11-19T09:19:01;16.30;;;5.05;;
13611;SDS011;6877;51.436;6.774;2023-11-19T09:21:33;22.00;;;5.82;;
13611;SDS011;6877;51.436;6.774;2023-11-19T09:24:07;18.75;;;4.60;;
13611;SDS011;6877;51.436;6.774;2023-11-19T09:26:34;29.02;;;6.03;;
13611;SDS011;6877;51.436;6.774;2023-11-19T09:29:02;13.27;;;4.40;;
13611;SDS011;6877;51.436;6.774;2023-11-19T09:31:33;19.10;;;4.75;;
13611;SDS011;6877;51.436;6.774;2023-11-19T09:34:05;27.60;;;5.35;;
13611;SDS011;6877;51.436;6.774;2023-11-19T09:36:32;21.13;;;4.82;;
13611;SDS011;6877;51.436;6.774;2023-11-19T09:38:58;21.63;;;4.53;;
13611;SDS011;6877;51.436;6.774;2023-11-19T09:41:32;22.42;;;4.45;;
13611;SDS011;6877;51.436;6.774;2023-11-19T09:43:58;29.60;;;5.65;;
13611;SDS011;6877;51.436;6.774;2023-11-19T09:46:25;15.48;;;5.90;;
13611;SDS011;6877;51.436;6.774;2023-11-19T09:48:57;18.02;;;5.75;;
13611;SDS011;6877;51.436;6.774;2023-11-19T09:51:25;17.92;;;4.13;;
13611;SDS011;6877;51.436;6.774;2023-11-19T09:53:57;26.27;;;6.22;;
13611;SDS011;6877;51.436;6.774;2023-11-19T09:56:29;23.27;;;6.85;;
13611;SDS011;6877;51.436;6.774;2023-11-19T09:59:00;17.17;;;5.72;;
13611;SDS011;6877;51.436;6.774;2023-11-19T10:01:28;21.63;;;5.68;;
13611;SDS011;6877;51.436;6.774;2023-11-19T10:03:59;26.52;;;6.20;;
13611;SDS011;6877;51.436;6.774;2023-11-19T10:06:27;23.27;;;5.97;;
13611;SDS011;6877;51.436;6.774;2023-11-19T10:08:53;26.88;;;5.18;;
13611;SDS011;6877;51.436;6.774;2023-11-19T10:11:21;24.52;;;6.28;;
13611;SDS011;6877;51.436;6.774;2023-11-19T10:13:47;26.73;;;4.95;;
13611;SDS011;6877;51.436;6.774;2023-11-19T10:16:15;14.60;;;4.43;;
13611;SDS011;6877;51.436;6.774;2023-11-19T10:18:48;28.10;;;5.38;;
13611;SDS011;6877;51.436;6.774;2023-11-19T10:21:21;18.95;;;5.43;;
13611;SDS011;6877;51.436;6.774;2023-11-19T10:23:51;24.60;;;5.38;;
13611;SDS011;6877;51.436;6.774;2023-11-19T10:26:19;25.05;;;5.38;;
13611;SDS011;6877;51.436;6.774;2023-11-19T10:28:47;24.83;;;7.07;;
13611;SDS011;6877;51.436;6.774;2023-11-19T10:31:14;21.48;;;6.40;;
13611;SDS011;6877;51.436;6.774;2023-11-19T10:33:41;27.35;;;5.53;;
13611;SDS011;6877;51.436;6.774;2023-11-19T10:36:14;19.40;;;4.10;;
13611;SDS011;6877;51.436;6.774;2023-11-19T10:38:40;23.30;;;5.03;;
13611;SDS011;6877;51.436;6.774;2023-11-19T10:41:27;15.27;;;4.03;;
13611;SDS011;6877;51.436;6.774;2023-11-19T10:44:01;25.60;;;4.93;;
13611;SDS011;6877;51.436;6.774;2023-11-19T10:46:40;28.52;;;4.40;;
13611;SDS011;6877;51.436;6.774;2023-11-19T10:49:08;18.38;;;4.88;;
13611;SDS011;6877;51.436;6.774;2023-11-19T10:51:44;24.27;;;5.90;;
13611;SDS011;6877;51.436;6.774;2023-11-19T10:54:12;21.23;;;4.53;;
13611;SDS011;6877;51.436;6.774;2023-11-19T10:56:44;22.77;;;5.55;;
13611;SDS011;6877;51.436;6.774;2023-11-19T10:59:11;21.10;;;4.80;;
13611;SDS011;6877;51.436;6.774;2023-11-19T11:01:45;19.20;;;3.80;;
13611;SDS011;6877;51.436;6.774;2023-11-19T11:04:19;29.10;;;6.72;;
13611;SDS011;6877;51.436;6.774;2023-11-19T11:06:53;28.63;;;6.97;;
13611;SDS011;6877;51.436;6.774;2023-11-19T11:09:21;25.40;;;5.25;;
13611;SDS011;6877;51.436;6.774;2023-11-19T11:11:54;25.42;;;5.47;;
13611;SDS011;6877;51.436;6.774;2023-11-19T11:14:21;24.88;;;5.85;;
13611;SDS011;6877;51.436;6.774;2023-11-19T11:16:49;16.45;;;6.03;;
13611;SDS011;6877;51.436;6.774;2023-11-19T11:19:17;22.95;;;5.32;;
13611;SDS011;6877;51.436;6.774;2023-11-19T11:21:45;16.90;;;4.72;;
13611;SDS011;6877;51.436;6.774;2023-11-19T11:24:30;19.40;;;3.78;;
13611;SDS011;6877;51.436;6.774;2023-11-19T11:30:10;15.57;;;5.80;;
13611;SDS011;6877;51.436;6.774;2023-11-19T11:36:00;20.83;;;5.68;;
13611;SDS011;6877;51.436;6.774;2023-11-19T11:38:31;12.55;;;4.97;;
13611;SDS011;6877;51.436;6.774;2023-11-19T11:41:17;13.93;;;4.40;;
13611;SDS011;6877;51.436;6.774;2023-11-19T11:43:49;16.85;;;5.55;;
13611;SDS011;6877;51.436;6.774;2023-11-19T11:49:03;14.98;;;4.70;;
13611;SDS011;6877;51.436;6.774;2023-11-19T11:54:09;20.23;;;5.65;;
13611;SDS011;6877;51.436;6.774;2023-11-19T11:56:37;18.60;;;4.72;;
13611;SDS011;6877;51.436;6.774;2023-11-19T11:59:18;21.75;;;4.85;;
13611;SDS011;6877;51.436;6.774;2023-11-19T12:01:59;22.23;;;5.43;;
13611;SDS011;6877;51.436;6.774;2023-11-19T12:04:26;19.70;;;5.25;;
13611;SDS011;6877;51.436;6.774;2023-11-19T12:07:11;24.63;;;5.25;;
13611;SDS011;6877;51.436;6.774;2023-11-19T12:09:48;21.05;;;4.45;;
13611;SDS011;6877;51.436;6.774;2023-11-19T12:12:23;25.48;;;5.35;;
13611;SDS011;6877;51.436;6.774;2023-11-19T12:15:04;23.10;;;5.45;;
13611;SDS011;6877;51.436;6.774;2023-11-19T12:20:09;17.58;;;4.93;;
13611;SDS011;6877;51.436;6.774;2023-11-19T12:22:37;14.63;;;4.03;;
13611;SDS011;6877;51.436;6.774;2023-11-19T12:25:05;12.95;;;4.20;;
13611;SDS011;6877;51.436;6.774;2023-11-19T12:27:32;11.93;;;3.80;;
13611;SDS011;6877;51.436;6.774;2023-11-19T12:30:07;17.80;;;5.60;;
13611;SDS011;6877;51.436;6.774;2023-11-19T12:32:53;16.50;;;5.00;;
13611;SDS011;6877;51.436;6.774;2023-11-19T12:35:19;22.35;;;4.95;;
13611;SDS011;6877;51.436;6.774;2023-11-19T12:37:47;18.33;;;3.28;;
13611;SDS011;6877;51.436;6.774;2023-11-19T12:40:25;16.38;;;4.40;;
13611;SDS011;6877;51.436;6.774;2023-11-19T12:42:56;20.35;;;5.95;;
13611;SDS011;6877;51.436;6.774;2023-11-19T12:45:35;14.00;;;4.45;;
13611;SDS011;6877;51.436;6.774;2023-11-19T12:48:05;17.77;;;5.72;;
13611;SDS011;6877;51.436;6.774;2023-11-19T12:53:22;17.08;;;5.15;;
13611;SDS011;6877;51.436;6.774;2023-11-19T12:55:54;19.90;;;4.25;;
13611;SDS011;6877;51.436;6.774;2023-11-19T12:58:29;14.38;;;3.78;;
13611;SDS011;6877;51.436;6.774;2023-11-19T13:01:02;16.00;;;4.88;;
13611;SDS011;6877;51.436;6.774;2023-11-19T13:03:33;20.50;;;5.60;;
13611;SDS011;6877;51.436;6.774;2023-11-19T13:11:33;23.17;;;6.18;;
13611;SDS011;6877;51.436;6.774;2023-11-19T13:14:04;11.32;;;5.03;;
13611;SDS011;6877;51.436;6.774;2023-11-19T13:16:31;17.90;;;3.88;;
13611;SDS011;6877;51.436;6.774;2023-11-19T13:18:58;9.68;;;3.83;;
13611;SDS011;6877;51.436;6.774;2023-11-19T13:21:31;21.05;;;5.15;;
13611;SDS011;6877;51.436;6.774;2023-11-19T13:23:58;13.43;;;5.47;;
13611;SDS011;6877;51.436;6.774;2023-11-19T13:26:29;16.73;;;4.03;;
13611;SDS011;6877;51.436;6.774;2023-11-19T13:28:56;13.60;;;5.40;;
13611;SDS011;6877;51.436;6.774;2023-11-19T13:31:22;26.80;;;5.65;;
13611;SDS011;6877;51.436;6.774;2023-11-19T13:33:49;19.10;;;5.80;;
13611;SDS011;6877;51.436;6.774;2023-11-19T13:36:16;22.70;;;6.15;;
13611;SDS011;6877;51.436;6.774;2023-11-19T13:38:42;20.08;;;6.38;;
13611;SDS011;6877;51.436;6.774;2023-11-19T13:41:10;18.80;;;5.93;;
13611;SDS011;6877;51.436;6.774;2023-11-19T13:43:42;22.15;;;5.53;;
13611;SDS011;6877;51.436;6.774;2023-11-19T13:46:10;21.30;;;6.95;;
13611;SDS011;6877;51.436;6.774;2023-11-19T13:48:41;24.33;;;5.95;;
13611;SDS011;6877;51.436;6.774;2023-11-19T13:51:08;18.17;;;7.28;;
13611;SDS011;6877;51.436;6.774;2023-11-19T13:53:36;14.75;;;5.38;;
13611;SDS011;6877;51.436;6.774;2023-11-19T13:56:08;24.80;;;6.05;;
13611;SDS011;6877;51.436;6.774;2023-11-19T13:58:35;19.88;;;5.85;;
13611;SDS011;6877;51.436;6.774;2023-11-19T14:01:01;15.82;;;5.78;;
13611;SDS011;6877;51.436;6.774;2023-11-19T14:03:33;22.80;;;6.90;;
13611;SDS011;6877;51.436;6.774;2023-11-19T14:06:04;24.23;;;6.63;;
13611;SDS011;6877;51.436;6.774;2023-11-19T14:08:32;25.40;;;5.95;;
13611;SDS011;6877;51.436;6.774;2023-11-19T14:10:59;28.23;;;7.03;;
13611;SDS011;6877;51.436;6.774;2023-11-19T14:13:25;28.85;;;6.85;;
13611;SDS011;6877;51.436;6.774;2023-11-19T14:15:52;13.27;;;4.47;;
13611;SDS011;6877;51.436;6.774;2023-11-19T14:18:18;15.77;;;4.25;;
13611;SDS011;6877;51.436;6.774;2023-11-19T14:20:45;21.38;;;6.53;;
13611;SDS011;6877;51.436;6.774;2023-11-19T14:23:11;15.63;;;4.80;;
13611;SDS011;6877;51.436;6.774;2023-11-19T14:25:38;20.08;;;5.28;;
13611;SDS011;6877;51.436;6.774;2023-11-19T14:28:05;18.80;;;6.35;;
13611;SDS011;6877;51.436;6.774;2023-11-19T14:30:31;10.90;;;4.60;;
13611;SDS011;6877;51.436;6.774;2023-11-19T14:32:58;17.35;;;4.82;;
13611;SDS011;6877;51.436;6.774;2023-11-19T14:35:24;24.92;;;5.88;;
13611;SDS011;6877;51.436;6.774;2023-11-19T14:37:56;23.80;;;5.85;;
13611;SDS011;6877;51.436;6.774;2023-11-19T14:40:22;20.33;;;5.70;;
13611;SDS011;6877;51.436;6.774;2023-11-19T14:42:54;16.10;;;7.03;;
13611;SDS011;6877;51.436;6.774;2023-11-19T14:45:29;24.40;;;5.78;;
13611;SDS011;6877;51.436;6.774;2023-11-19T14:47:56;22.02;;;7.60;;
13611;SDS011;6877;51.436;6.774;2023-11-19T14:50:28;20.70;;;6.40;;
13611;SDS011;6877;51.436;6.774;2023-11-19T14:52:59;17.85;;;4.90;;
13611;SDS011;6877;51.436;6.774;2023-11-19T14:55:31;16.42;;;4.85;;
13611;SDS011;6877;51.436;6.774;2023-11-19T14:57:58;12.25;;;4.03;;
13611;SDS011;6877;51.436;6.774;2023-11-19T15:00:24;14.25;;;5.22;;
13611;SDS011;6877;51.436;6.774;2023-11-19T15:02:51;16.75;;;4.43;;
13611;SDS011;6877;51.436;6.774;2023-11-19T15:05:23;13.55;;;4.35;;
13611;SDS011;6877;51.436;6.774;2023-11-19T15:07:54;19.80;;;3.63;;
13611;SDS011;6877;51.436;6.774;2023-11-19T15:10:21;11.38;;;4.00;;
13611;SDS011;6877;51.436;6.774;2023-11-19T15:12:48;12.10;;;4.82;;
13611;SDS011;6877;51.436;6.774;2023-11-19T15:15:14;23.48;;;6.40;;
13611;SDS011;6877;51.436;6.774;2023-11-19T15:17:41;17.23;;;5.15;;
13611;SDS011;6877;51.436;6.774;2023-11-19T15:20:08;23.10;;;5.90;;